createdAt,value
2023-05-11T00:22:05.180Z,141.70
2023-05-11T00:26:34.057Z,116.40
2023-05-11T00:34:58.804Z,51.30
2023-05-11T00:39:27.452Z,43.00
2023-05-11T00:43:51.679Z,44.70
2023-05-11T00:48:12.070Z,41.30
2023-05-11T00:52:40.805Z,42.20
2023-05-11T01:19:23.238Z,54.50
2023-05-11T01:23:58.603Z,43.00
2023-05-11T01:28:28.607Z,42.20
2023-05-11T01:47:20.308Z,49.10
2023-05-11T01:51:49.033Z,37.80
2023-05-11T02:13:30.981Z,48.90
2023-05-11T02:17:59.712Z,43.50
2023-05-11T02:40:01.581Z,52.10
2023-05-11T02:44:31.638Z,41.50
2023-05-11T02:48:56.640Z,40.30
2023-05-11T03:06:16.288Z,47.10
2023-05-11T03:10:39.379Z,41.30
2023-05-11T03:15:09.256Z,39.30
2023-05-11T03:32:34.723Z,46.50
2023-05-11T03:37:04.081Z,38.40
2023-05-11T03:41:32.813Z,35.60
2023-05-11T03:58:55.177Z,45.00
2023-05-11T04:03:24.112Z,42.90
2023-05-11T04:20:18.126Z,44.70
2023-05-11T04:24:49.030Z,38.70
2023-05-11T04:29:17.852Z,39.90
2023-05-11T04:33:46.520Z,38.60
2023-05-11T04:55:38.660Z,46.50
2023-05-11T05:00:07.604Z,43.60
2023-05-11T05:04:38.218Z,41.40
2023-05-11T05:31:29.026Z,56.00
2023-05-11T05:35:58.564Z,52.30
2023-05-11T05:40:27.447Z,50.40
2023-05-11T06:01:44.144Z,67.40
2023-05-11T06:05:53.137Z,50.80
2023-05-11T06:10:15.693Z,57.00
2023-05-11T06:14:32.668Z,58.40
2023-05-11T06:31:08.603Z,70.70
2023-05-11T06:35:25.864Z,66.10
2023-05-11T06:39:54.648Z,64.70
2023-05-11T06:44:01.670Z,58.30
2023-05-11T07:01:08.203Z,88.30
2023-05-11T07:05:31.381Z,77.20
2023-05-11T07:10:01.094Z,82.10
2023-05-11T07:28:30.034Z,98.30
2023-05-11T07:32:59.455Z,83.80
2023-05-11T07:37:24.405Z,79.50
2023-05-11T07:41:49.069Z,78.90
2023-05-11T07:59:06.504Z,89.20
2023-05-11T08:07:14.712Z,89.40
2023-05-11T08:15:37.266Z,75.40
2023-05-11T08:19:48.570Z,80.10
2023-05-11T08:24:17.636Z,81.20
2023-05-11T08:28:38.115Z,83.70
2023-05-11T08:32:30.269Z,85.40
2023-05-11T08:36:18.883Z,90.50
2023-05-11T08:39:43.790Z,91.30
2023-05-11T08:43:46.900Z,94.70
2023-05-11T08:47:23.384Z,91.70
2023-05-11T08:51:12.374Z,97.60
2023-05-11T08:54:49.978Z,109.60
2023-05-11T08:57:51.706Z,108.70
2023-05-11T09:01:39.713Z,113.80
2023-05-11T09:05:54.591Z,111.10
2023-05-11T09:10:14.192Z,126.70
2023-05-11T09:14:12.130Z,120.10
2023-05-11T09:18:21.835Z,142.20
2023-05-11T09:21:32.796Z,138.60
2023-05-11T09:25:10.463Z,145.60
2023-05-11T09:28:46.079Z,141.30
2023-05-11T09:32:36.977Z,144.20
2023-05-11T09:36:16.324Z,153.90
2023-05-11T09:40:27.458Z,89.30
2023-05-11T09:44:23.109Z,77.70
2023-05-11T09:48:10.357Z,75.20
2023-05-11T09:52:06.651Z,67.40
2023-05-11T09:55:29.417Z,56.30
2023-05-11T09:59:23.473Z,66.60
2023-05-11T10:03:26.477Z,61.20
2023-05-11T10:08:09.017Z,68.10
2023-05-11T10:12:21.275Z,76.80
2023-05-11T10:16:51.050Z,80.00
2023-05-11T10:21:22.375Z,80.10
2023-05-11T10:43:11.274Z,81.10
2023-05-11T10:47:55.730Z,102.40
2023-05-11T10:52:35.195Z,86.90
2023-05-11T10:57:04.734Z,118.70
2023-05-11T11:01:27.476Z,111.50
2023-05-11T11:09:49.267Z,122.50
2023-05-11T11:14:01.134Z,106.30
2023-05-11T11:18:19.162Z,109.90
2023-05-11T11:22:42.139Z,116.60
2023-05-11T11:27:30.183Z,123.00
2023-05-11T11:49:45.662Z,104.00
2023-05-11T11:54:18.003Z,109.60
2023-05-11T11:58:47.798Z,111.80
2023-05-11T12:03:16.843Z,124.80
2023-05-11T12:07:46.049Z,121.20
2023-05-11T12:12:07.445Z,110.10
2023-05-11T12:47:02.343Z,94.10
2023-05-11T12:51:20.183Z,100.30
2023-05-11T12:55:34.479Z,93.60
2023-05-11T12:59:58.420Z,106.20
2023-05-11T13:04:24.038Z,101.90
2023-05-11T13:21:59.398Z,96.60
2023-05-11T13:26:25.426Z,90.20
2023-05-11T13:30:47.655Z,87.80
2023-05-11T13:35:11.153Z,90.90
2023-05-11T13:39:40.974Z,89.40
2023-05-11T13:47:26.057Z,93.20
2023-05-11T13:51:54.977Z,84.70
2023-05-11T13:56:25.205Z,87.60
2023-05-11T14:01:07.208Z,105.30
2023-05-11T14:05:25.640Z,103.20
2023-05-11T14:22:35.279Z,96.70
2023-05-11T14:27:04.556Z,102.50
2023-05-11T14:31:33.793Z,97.30
2023-05-11T14:53:13.456Z,93.50
2023-05-11T14:57:43.099Z,97.20
2023-05-11T15:01:49.521Z,86.30
2023-05-11T15:28:06.620Z,92.20
2023-05-11T15:32:35.319Z,81.10
2023-05-11T15:37:15.896Z,89.20
2023-05-11T15:41:44.600Z,81.10
2023-05-11T15:46:13.296Z,84.20
2023-05-11T15:50:43.616Z,92.80
2023-05-11T15:55:12.451Z,81.40
2023-05-11T16:12:25.590Z,87.50
2023-05-11T16:16:54.447Z,90.20
2023-05-11T16:21:24.198Z,77.30
2023-05-11T16:43:07.467Z,61.30
2023-05-11T16:47:18.385Z,75.30
2023-05-11T16:51:39.307Z,91.10
2023-05-11T16:56:08.223Z,89.90
2023-05-11T17:22:26.153Z,71.20
2023-05-11T17:26:48.320Z,106.30
2023-05-11T17:31:11.677Z,119.20
2023-05-11T17:52:43.589Z,75.20
2023-05-11T17:57:08.447Z,50.60
2023-05-11T18:19:02.651Z,56.00
2023-05-11T18:23:31.539Z,48.80
2023-05-11T18:40:55.544Z,55.70
2023-05-11T18:45:13.457Z,46.40
2023-05-11T18:49:43.494Z,44.60
2023-05-11T18:54:06.480Z,44.50
2023-05-11T19:11:27.231Z,50.40
2023-05-11T19:15:50.595Z,43.00
2023-05-11T19:20:19.666Z,40.40
2023-05-11T19:24:49.121Z,39.10
2023-05-11T19:42:10.794Z,48.70
2023-05-11T19:46:33.942Z,40.50
2023-05-11T20:09:38.137Z,50.60
2023-05-11T20:14:07.117Z,40.30
2023-05-11T20:18:36.266Z,39.20
2023-05-11T20:36:05.921Z,62.80
2023-05-11T20:40:34.641Z,53.00
2023-05-11T20:49:09.274Z,60.00
2023-05-11T20:53:38.284Z,49.20
2023-05-11T20:58:08.166Z,49.90
2023-05-11T21:24:14.709Z,55.50
2023-05-11T21:28:43.904Z,47.60
2023-05-11T21:33:14.215Z,44.80
2023-05-11T21:50:30.650Z,51.70
2023-05-11T21:54:59.472Z,45.50
2023-05-11T21:59:28.718Z,42.00
2023-05-11T22:03:55.564Z,44.10
2023-05-11T22:34:26.308Z,45.00
2023-05-11T22:38:56.490Z,39.50
2023-05-11T23:00:34.370Z,42.70
2023-05-11T23:05:03.065Z,36.50
2023-05-11T23:22:17.976Z,42.10
2023-05-11T23:26:47.210Z,38.60
2023-05-11T23:31:16.480Z,37.20
2023-05-11T23:35:46.223Z,34.40
2023-05-11T23:57:25.498Z,36.90
